Time;durP1;ratioP1;P1;durP2;ratioP2;P2;SDS_P1;SDS_P2;PMS_P1;PMS_P2;Temp;Humidity;BMP_temperature;BMP_pressure;BME280_temperature;BME280_humidity;BME280_pressure;Samples;Min_cycle;Max_cycle;Signal;HPM_P1;HPM_P2
2022/01/21 00:01:03;;;;;;;2.60;0.50;;;2.60;99.90;;;;;;5075850;28;20451;-70
2022/01/21 00:03:29;;;;;;;1.27;0.50;;;2.70;99.90;;;;;;5075485;28;20419;-70
2022/01/21 00:05:57;;;;;;;1.58;0.60;;;2.70;99.90;;;;;;5075825;28;20485;-70
2022/01/21 00:08:25;;;;;;;1.73;0.50;;;2.60;99.90;;;;;;5075463;28;20462;-70
2022/01/21 00:10:52;;;;;;;2.92;0.43;;;2.60;99.90;;;;;;5075019;28;20482;-70
2022/01/21 00:13:24;;;;;;;1.63;0.40;;;2.60;99.90;;;;;;5075088;28;20829;-69
2022/01/21 00:15:51;;;;;;;1.70;0.50;;;2.60;99.90;;;;;;5075608;28;20541;-70
2022/01/21 00:18:19;;;;;;;0.82;0.40;;;2.60;99.90;;;;;;5075264;28;20431;-70
2022/01/21 00:31:46;;;;;;;2.97;0.50;;;2.40;99.90;;;;;;5073211;28;20738;-69
2022/01/21 00:34:14;;;;;;;2.90;0.60;;;2.50;99.90;;;;;;5074250;28;20462;-70
2022/01/21 00:36:41;;;;;;;1.25;0.50;;;2.60;99.90;;;;;;5073628;28;20422;-69
2022/01/21 00:39:11;;;;;;;0.85;0.40;;;2.70;99.90;;;;;;5057095;28;20435;-70
2022/01/21 00:41:44;;;;;;;1.75;0.50;;;2.80;99.90;;;;;;5057296;28;20827;-69
2022/01/21 00:44:11;;;;;;;3.38;0.50;;;2.70;99.90;;;;;;5075707;28;20424;-69
2022/01/21 00:46:38;;;;;;;1.02;0.50;;;2.50;99.90;;;;;;5075596;28;20858;-70
2022/01/21 00:49:05;;;;;;;0.93;0.55;;;2.60;99.90;;;;;;5075321;28;20447;-69
2022/01/21 00:51:35;;;;;;;3.20;0.50;;;2.60;99.90;;;;;;5075256;28;20428;-70
2022/01/21 00:54:02;;;;;;;1.77;0.60;;;2.60;99.90;;;;;;5075380;28;20561;-69
2022/01/21 00:56:30;;;;;;;1.10;0.50;;;2.70;99.90;;;;;;5075243;28;20415;-69
2022/01/21 00:58:57;;;;;;;2.70;0.40;;;2.50;99.90;;;;;;5075563;28;20424;-69
2022/01/21 01:01:24;;;;;;;2.00;0.40;;;2.50;99.90;;;;;;5074825;28;20451;-69
2022/01/21 01:03:51;;;;;;;2.30;0.50;;;2.80;99.90;;;;;;5074882;28;20482;-69
2022/01/21 01:06:18;;;;;;;2.35;0.50;;;2.70;99.90;;;;;;5075098;28;20877;-70
2022/01/21 01:08:45;;;;;;;1.50;0.70;;;2.70;99.90;;;;;;5074856;28;20477;-69
2022/01/21 01:11:19;;;;;;;1.90;0.50;;;2.80;99.90;;;;;;5075300;28;20834;-69
2022/01/21 01:22:00;;;;;;;0.70;0.40;;;2.70;99.90;;;;;;5072943;28;20457;-70
2022/01/21 01:29:56;;;;;;;1.40;0.50;;;2.70;99.90;;;;;;5072344;28;20441;-69
2022/01/21 01:32:24;;;;;;;2.97;0.40;;;2.80;99.90;;;;;;5074171;28;20411;-69
2022/01/21 01:34:52;;;;;;;2.35;0.40;;;2.70;99.90;;;;;;5073635;28;20499;-69
2022/01/21 01:37:33;;;;;;;1.00;0.50;;;2.80;99.90;;;;;;5073565;28;20511;-69
2022/01/21 01:40:14;;;;;;;3.42;0.40;;;2.80;99.90;;;;;;5074711;28;20469;-69
2022/01/21 01:43:01;;;;;;;2.80;0.40;;;2.70;99.90;;;;;;5074789;28;20427;-69
2022/01/21 01:51:02;;;;;;;2.10;0.50;;;2.80;99.90;;;;;;5078396;28;20760;-69
2022/01/21 01:53:34;;;;;;;1.40;0.40;;;2.70;99.90;;;;;;5078532;28;20467;-70
2022/01/21 01:56:02;;;;;;;2.47;0.50;;;2.80;99.90;;;;;;5077524;28;20880;-70
2022/01/21 01:58:29;;;;;;;1.80;0.50;;;2.90;99.90;;;;;;5077236;28;20909;-69
2022/01/21 02:00:57;;;;;;;2.07;0.40;;;2.80;99.90;;;;;;5077386;28;20477;-70
2022/01/21 02:03:25;;;;;;;1.20;0.50;;;2.70;99.90;;;;;;5077339;28;20478;-69
2022/01/21 02:05:52;;;;;;;3.90;0.50;;;2.50;99.90;;;;;;5078444;28;20419;-69
2022/01/21 02:08:19;;;;;;;2.47;0.50;;;2.50;99.90;;;;;;5079318;28;20850;-70
2022/01/21 02:10:46;;;;;;;0.88;0.40;;;2.60;99.90;;;;;;5080197;28;20419;-69
2022/01/21 02:13:22;;;;;;;1.70;0.40;;;2.60;99.90;;;;;;5079575;28;20423;-69
2022/01/21 02:16:06;;;;;;;3.92;0.60;;;2.70;99.90;;;;;;5077921;28;20482;-68
2022/01/21 02:21:35;;;;;;;1.40;0.40;;;2.70;99.90;;;;;;5077062;28;20402;-69
2022/01/21 02:24:07;;;;;;;1.50;0.50;;;2.60;99.90;;;;;;5077440;28;20525;-69
2022/01/21 02:26:34;;;;;;;3.30;0.60;;;2.70;99.90;;;;;;5076616;28;20440;-69
2022/01/21 02:29:03;;;;;;;0.70;0.40;;;2.70;99.90;;;;;;5077411;28;20481;-69
2022/01/21 02:31:30;;;;;;;0.90;0.40;;;2.70;99.90;;;;;;5078052;28;20493;-69
2022/01/21 02:33:58;;;;;;;2.50;0.50;;;2.60;99.90;;;;;;5078032;28;20470;-69
2022/01/21 02:36:27;;;;;;;2.80;0.50;;;2.50;99.90;;;;;;5078023;28;20423;-69
2022/01/21 02:38:53;;;;;;;1.90;0.50;;;2.60;99.90;;;;;;5077682;28;20462;-69
2022/01/21 02:41:21;;;;;;;1.30;0.50;;;2.60;99.90;;;;;;5077516;28;20538;-69
2022/01/21 02:43:48;;;;;;;2.22;0.50;;;2.60;99.90;;;;;;5077489;28;20477;-69
2022/01/21 02:46:16;;;;;;;1.15;0.52;;;2.40;99.90;;;;;;5077496;28;20718;-69
2022/01/21 02:48:46;;;;;;;2.28;0.50;;;2.30;99.90;;;;;;5077690;28;20423;-69
2022/01/21 02:51:14;;;;;;;3.10;0.50;;;2.30;99.90;;;;;;5077099;28;20419;-69
2022/01/21 02:56:34;;;;;;;1.90;0.50;;;2.30;99.90;;;;;;5060814;28;20827;-69
2022/01/21 02:59:01;;;;;;;2.03;0.50;;;2.30;99.90;;;;;;5076740;28;20500;-69
2022/01/21 03:01:31;;;;;;;1.67;0.40;;;2.20;99.90;;;;;;5074956;28;20459;-69
2022/01/21 03:03:59;;;;;;;1.67;0.50;;;2.40;99.90;;;;;;5075783;28;20941;-70
2022/01/21 03:06:26;;;;;;;2.33;0.50;;;2.60;99.90;;;;;;5076402;28;20738;-70
2022/01/21 03:08:58;;;;;;;0.85;0.50;;;2.50;99.90;;;;;;5076269;28;20473;-69
2022/01/21 03:11:26;;;;;;;1.10;0.50;;;2.50;99.90;;;;;;5075810;28;20415;-69
2022/01/21 03:13:54;;;;;;;2.78;0.50;;;2.40;99.90;;;;;;5058179;28;20502;-70
2022/01/21 03:16:21;;;;;;;1.83;0.50;;;2.40;99.90;;;;;;5075328;28;20498;-69
2022/01/21 03:18:48;;;;;;;2.83;0.60;;;2.40;99.90;;;;;;5075136;28;20485;-69
2022/01/21 03:21:16;;;;;;;1.55;0.50;;;2.40;99.90;;;;;;5074625;28;20763;-69
2022/01/21 03:23:48;;;;;;;1.10;0.50;;;2.40;99.90;;;;;;5074929;28;20443;-69
2022/01/21 03:26:18;;;;;;;1.67;0.40;;;2.40;99.90;;;;;;5074729;28;20505;-70
2022/01/21 03:28:46;;;;;;;1.77;0.50;;;2.60;99.90;;;;;;5075655;28;20451;-69
2022/01/21 03:31:14;;;;;;;2.70;0.60;;;2.70;99.90;;;;;;5075701;28;20505;-70
2022/01/21 03:33:41;;;;;;;2.30;0.50;;;2.70;99.90;;;;;;5075659;28;20478;-69
2022/01/21 03:36:09;;;;;;;1.50;0.40;;;2.60;99.90;;;;;;5075361;28;20462;-69
2022/01/21 03:38:36;;;;;;;2.20;0.60;;;2.70;99.90;;;;;;5075532;28;20763;-69
2022/01/21 03:41:04;;;;;;;0.90;0.50;;;2.80;99.90;;;;;;5075054;28;20455;-69
2022/01/21 03:43:33;;;;;;;2.25;0.50;;;2.80;99.90;;;;;;5075733;28;20505;-69
2022/01/21 03:46:00;;;;;;;1.60;0.50;;;2.60;99.90;;;;;;5075874;28;20463;-69
2022/01/21 03:48:27;;;;;;;1.48;0.50;;;2.60;99.90;;;;;;5076195;28;20477;-69
2022/01/21 03:50:54;;;;;;;3.13;0.60;;;2.60;99.90;;;;;;5076205;28;20419;-70
2022/01/21 03:53:21;;;;;;;0.80;0.50;;;2.60;99.90;;;;;;5076863;28;20451;-69
2022/01/21 03:55:49;;;;;;;2.08;0.50;;;2.40;99.90;;;;;;5076419;28;20847;-69
2022/01/21 03:58:16;;;;;;;2.10;0.70;;;2.20;99.90;;;;;;5076303;28;20432;-70
2022/01/21 04:00:47;;;;;;;1.45;0.50;;;2.10;99.90;;;;;;5076482;28;20463;-69
2022/01/21 04:03:14;;;;;;;2.05;0.50;;;2.10;99.90;;;;;;5076215;28;20427;-69
2022/01/21 04:05:42;;;;;;;1.80;0.50;;;2.10;99.90;;;;;;5076070;28;20474;-70
2022/01/21 04:08:10;;;;;;;1.30;0.60;;;2.10;99.90;;;;;;5076078;28;20462;-70
2022/01/21 04:10:41;;;;;;;1.97;0.60;;;2.20;99.90;;;;;;5076324;28;20459;-69
2022/01/21 04:13:14;;;;;;;4.60;0.80;;;2.20;99.90;;;;;;5075365;28;20438;-69
2022/01/21 04:15:42;;;;;;;1.50;0.60;;;2.10;99.90;;;;;;5075644;28;20424;-69
2022/01/21 04:18:10;;;;;;;2.83;0.50;;;2.10;99.90;;;;;;5076035;28;20423;-69
2022/01/21 04:20:37;;;;;;;2.35;0.60;;;2.00;99.90;;;;;;5075530;28;20851;-69
2022/01/21 04:23:05;;;;;;;1.60;0.60;;;2.20;99.90;;;;;;5076027;28;20473;-69
2022/01/21 04:25:32;;;;;;;1.65;0.70;;;2.20;99.90;;;;;;5074743;28;20470;-69
2022/01/21 04:28:00;;;;;;;1.50;0.60;;;2.30;99.90;;;;;;5075427;28;20471;-69
2022/01/21 04:30:27;;;;;;;1.00;0.50;;;2.20;99.90;;;;;;5075611;28;20422;-70
2022/01/21 04:32:54;;;;;;;2.28;0.50;;;2.20;99.90;;;;;;5075719;28;20494;-69
2022/01/21 04:35:23;;;;;;;1.00;0.50;;;2.30;99.90;;;;;;5075395;28;20454;-70
2022/01/21 04:37:54;;;;;;;1.70;0.60;;;2.30;99.90;;;;;;5075425;28;20923;-70
2022/01/21 04:40:24;;;;;;;2.40;0.70;;;2.00;99.90;;;;;;5075261;28;20735;-69
2022/01/21 04:48:20;;;;;;;1.48;0.52;;;2.20;99.90;;;;;;5075372;28;20857;-70
2022/01/21 04:50:57;;;;;;;2.40;0.70;;;2.30;99.90;;;;;;5075109;28;20423;-69
2022/01/21 04:53:26;;;;;;;1.50;0.70;;;2.30;99.90;;;;;;5075389;28;20432;-70
2022/01/21 04:55:54;;;;;;;2.08;0.60;;;2.30;99.90;;;;;;5074929;28;20451;-69
2022/01/21 04:58:21;;;;;;;1.45;0.50;;;2.30;99.90;;;;;;5075235;28;20911;-69
2022/01/21 05:00:48;;;;;;;1.80;0.70;;;2.30;99.90;;;;;;5075186;28;20527;-69
2022/01/21 05:03:17;;;;;;;2.50;0.60;;;2.30;99.90;;;;;;5075466;28;20423;-70
2022/01/21 05:05:44;;;;;;;1.90;0.50;;;2.30;99.90;;;;;;5075316;28;20432;-70
2022/01/21 05:08:22;;;;;;;0.90;0.60;;;2.40;99.90;;;;;;5075432;28;20423;-69
2022/01/21 05:10:49;;;;;;;3.88;0.60;;;2.40;99.90;;;;;;5075077;28;20488;-69
2022/01/21 05:13:21;;;;;;;4.30;0.60;;;2.30;99.90;;;;;;5074664;28;20435;-69
2022/01/21 05:16:03;;;;;;;2.30;0.70;;;2.20;99.90;;;;;;5075302;28;20898;-69
2022/01/21 05:18:30;;;;;;;2.80;0.50;;;2.20;99.90;;;;;;5075101;28;20435;-69
2022/01/21 05:20:59;;;;;;;2.33;0.60;;;2.10;99.90;;;;;;5075303;28;20461;-69
2022/01/21 05:23:27;;;;;;;1.80;0.60;;;2.10;99.90;;;;;;5075233;28;20428;-69
2022/01/21 05:25:54;;;;;;;1.30;0.50;;;2.10;99.90;;;;;;5079042;28;20467;-69
2022/01/21 05:28:22;;;;;;;1.60;0.60;;;2.30;99.90;;;;;;5078894;28;20485;-69
2022/01/21 05:30:49;;;;;;;2.20;0.70;;;2.10;99.90;;;;;;5078968;28;20799;-71
2022/01/21 05:33:16;;;;;;;2.90;0.60;;;2.20;99.90;;;;;;5079112;28;20432;-68
2022/01/21 05:35:43;;;;;;;3.90;0.60;;;2.30;99.90;;;;;;5078787;28;20462;-69
2022/01/21 05:38:10;;;;;;;2.22;0.60;;;2.30;99.90;;;;;;5078184;28;20779;-69
2022/01/21 05:40:38;;;;;;;2.55;0.60;;;2.00;99.90;;;;;;5076228;28;20845;-69
2022/01/21 05:43:06;;;;;;;2.20;0.80;;;2.10;99.90;;;;;;5077585;28;20922;-69
2022/01/21 05:48:19;;;;;;;3.75;0.98;;;2.30;99.90;;;;;;5077725;28;20461;-71
2022/01/21 05:50:46;;;;;;;2.20;0.60;;;2.30;99.90;;;;;;5077673;28;20862;-70
2022/01/21 05:53:13;;;;;;;3.30;0.50;;;2.30;99.90;;;;;;5077740;28;20483;-70
2022/01/21 05:55:43;;;;;;;1.80;0.60;;;2.40;99.90;;;;;;5077331;28;20870;-69
2022/01/21 05:58:12;;;;;;;2.65;0.60;;;2.40;99.90;;;;;;5077742;28;20436;-70
2022/01/21 06:00:40;;;;;;;2.30;0.70;;;2.40;99.90;;;;;;5070002;28;20490;-70
2022/01/21 06:03:07;;;;;;;2.28;0.60;;;2.30;99.90;;;;;;5077532;28;20495;-69
2022/01/21 06:05:34;;;;;;;1.60;0.60;;;2.30;99.90;;;;;;5076567;28;20532;-70
2022/01/21 06:08:02;;;;;;;4.55;0.80;;;2.40;99.90;;;;;;5077184;28;20427;-70
2022/01/21 06:10:29;;;;;;;1.80;0.65;;;2.30;99.90;;;;;;5076341;28;20420;-70
2022/01/21 06:12:58;;;;;;;1.10;0.60;;;2.30;99.90;;;;;;5074874;28;20416;-71
2022/01/21 06:15:25;;;;;;;2.22;0.60;;;2.20;99.90;;;;;;5075824;28;20411;-70
2022/01/21 06:17:52;;;;;;;3.10;0.70;;;2.20;99.90;;;;;;5076332;28;20485;-70
2022/01/21 06:20:19;;;;;;;3.88;1.20;;;2.30;99.90;;;;;;5076789;28;20474;-69
2022/01/21 06:22:47;;;;;;;1.80;0.70;;;2.30;99.90;;;;;;5075935;28;20473;-70
2022/01/21 06:25:14;;;;;;;3.50;0.80;;;2.10;99.90;;;;;;5076371;28;20780;-70
2022/01/21 06:27:45;;;;;;;3.33;0.70;;;2.00;99.90;;;;;;5076107;28;20432;-70
2022/01/21 06:30:17;;;;;;;1.60;0.60;;;2.00;99.90;;;;;;5075581;28;20478;-69
2022/01/21 06:32:45;;;;;;;1.70;0.70;;;2.20;99.90;;;;;;5075101;28;20427;-69
2022/01/21 06:35:13;;;;;;;1.40;0.60;;;2.20;99.90;;;;;;5073792;28;20449;-69
2022/01/21 06:37:41;;;;;;;2.50;0.90;;;2.30;99.90;;;;;;5074285;28;20921;-70
2022/01/21 06:40:12;;;;;;;4.45;0.80;;;2.20;99.90;;;;;;5055572;28;20423;-69
2022/01/21 06:42:39;;;;;;;4.05;0.90;;;2.20;99.90;;;;;;5074996;28;20427;-69
2022/01/21 06:45:07;;;;;;;2.65;0.70;;;2.20;99.90;;;;;;5074497;28;20470;-70
2022/01/21 06:47:36;;;;;;;6.85;0.80;;;2.10;99.90;;;;;;5073527;28;20435;-69
2022/01/21 06:50:03;;;;;;;1.42;0.60;;;2.20;99.90;;;;;;5070365;28;20412;-70
2022/01/21 06:52:31;;;;;;;3.30;0.80;;;2.30;99.90;;;;;;5074007;28;20443;-70
2022/01/21 06:54:59;;;;;;;2.50;0.60;;;2.40;99.90;;;;;;5073650;28;20527;-72
2022/01/21 06:57:26;;;;;;;4.90;0.70;;;2.40;99.90;;;;;;5074203;28;20451;-69
2022/01/21 06:59:53;;;;;;;2.42;0.70;;;2.20;99.90;;;;;;5073625;28;20459;-70
2022/01/21 07:02:20;;;;;;;3.10;0.70;;;2.30;99.90;;;;;;5073712;28;20850;-69
2022/01/21 07:04:49;;;;;;;5.40;0.80;;;2.30;99.90;;;;;;5074443;28;20463;-71
2022/01/21 07:07:19;;;;;;;1.00;0.63;;;2.40;99.90;;;;;;5075972;28;20489;-70
2022/01/21 07:09:49;;;;;;;2.20;0.80;;;2.30;99.90;;;;;;5076002;28;20434;-70
2022/01/21 07:12:16;;;;;;;3.25;0.80;;;2.30;99.90;;;;;;5074800;28;20420;-69
2022/01/21 07:14:51;;;;;;;4.10;0.80;;;2.30;99.90;;;;;;5061395;28;20896;-70
2022/01/21 07:17:18;;;;;;;3.97;0.90;;;2.20;99.90;;;;;;5070983;28;20424;-70
2022/01/21 07:19:45;;;;;;;1.95;1.08;;;2.10;99.90;;;;;;5073454;28;20514;-69
2022/01/21 07:22:13;;;;;;;2.75;0.80;;;2.10;99.90;;;;;;5074819;28;20459;-69
2022/01/21 07:24:43;;;;;;;1.08;0.60;;;2.10;99.90;;;;;;5073243;28;20485;-70
2022/01/21 07:27:10;;;;;;;3.67;0.80;;;2.10;99.90;;;;;;5070785;28;20439;-69
2022/01/21 07:29:40;;;;;;;2.90;0.90;;;2.50;99.90;;;;;;5073215;28;20481;-68
2022/01/21 07:32:08;;;;;;;3.50;0.70;;;2.50;99.90;;;;;;5071549;28;20422;-68
2022/01/21 07:34:36;;;;;;;3.00;0.50;;;2.60;99.90;;;;;;5072978;28;20423;-68
2022/01/21 07:37:04;;;;;;;2.10;0.80;;;2.80;99.90;;;;;;5076403;28;20466;-68
2022/01/21 07:39:35;;;;;;;5.15;0.90;;;2.80;99.90;;;;;;5072438;28;20455;-68
2022/01/21 07:42:05;;;;;;;3.72;0.80;;;2.90;99.90;;;;;;5074545;28;20451;-69
2022/01/21 07:44:52;;;;;;;1.50;0.70;;;3.10;99.90;;;;;;5073721;28;20846;-68
2022/01/21 07:47:20;;;;;;;4.10;0.80;;;3.20;99.90;;;;;;5072193;28;20431;-69
2022/01/21 07:49:49;;;;;;;1.58;0.75;;;3.20;99.90;;;;;;5073846;28;20768;-68
2022/01/21 07:52:16;;;;;;;6.82;0.80;;;3.20;99.90;;;;;;5084226;28;20426;-68
2022/01/21 07:54:47;;;;;;;2.72;0.80;;;3.20;99.90;;;;;;5095183;28;20433;-68
2022/01/21 07:57:14;;;;;;;2.63;0.80;;;3.10;99.90;;;;;;5075015;28;20418;-68
2022/01/21 07:59:41;;;;;;;2.47;1.00;;;2.80;99.90;;;;;;5092827;28;20523;-68
2022/01/21 08:02:08;;;;;;;4.30;0.90;;;2.50;99.90;;;;;;5088272;28;20435;-68
2022/01/21 08:07:23;;;;;;;3.65;0.82;;;2.80;99.90;;;;;;5070547;28;20424;-68
2022/01/21 08:09:53;;;;;;;4.00;1.00;;;2.90;99.90;;;;;;5074908;28;20431;-68
2022/01/21 08:12:31;;;;;;;2.33;0.93;;;2.90;99.90;;;;;;5071960;28;20496;-68
2022/01/21 08:15:06;;;;;;;2.65;0.80;;;3.10;99.90;;;;;;5070848;28;20430;-68
2022/01/21 08:17:38;;;;;;;2.97;1.10;;;3.10;99.90;;;;;;5074081;28;20510;-70
2022/01/21 08:20:09;;;;;;;2.15;0.80;;;2.90;99.90;;;;;;5074776;28;20427;-69
2022/01/21 08:22:44;;;;;;;3.80;0.80;;;3.10;99.90;;;;;;5076083;28;20423;-69
2022/01/21 08:25:15;;;;;;;2.40;0.80;;;3.20;99.90;;;;;;5075969;28;20438;-71
2022/01/21 08:30:33;;;;;;;4.07;0.80;;;3.20;99.90;;;;;;5049862;28;20421;-71
2022/01/21 08:33:05;;;;;;;3.22;0.90;;;3.00;99.90;;;;;;5054000;28;20409;-69
2022/01/21 08:35:36;;;;;;;1.20;0.70;;;3.00;99.90;;;;;;5034752;28;20792;-70
2022/01/21 08:38:06;;;;;;;5.95;0.80;;;3.10;99.90;;;;;;5052426;28;20912;-70
2022/01/21 08:40:37;;;;;;;4.30;1.87;;;3.20;99.90;;;;;;5054811;28;20441;-70
2022/01/21 08:43:04;;;;;;;3.50;2.00;;;3.50;99.90;;;;;;5053786;28;20421;-70
2022/01/21 08:45:32;;;;;;;5.90;0.90;;;3.50;99.90;;;;;;5053777;28;20437;-69
2022/01/21 08:48:04;;;;;;;4.00;0.90;;;3.80;99.90;;;;;;5053092;28;20876;-68
2022/01/21 08:50:34;;;;;;;3.67;0.90;;;3.90;99.90;;;;;;5046836;28;20437;-68
2022/01/21 08:53:36;;;;;;;1.80;0.90;;;3.80;99.90;;;;;;5049170;28;20480;-68
2022/01/21 08:56:06;;;;;;;3.60;0.90;;;3.50;99.90;;;;;;5052647;28;20870;-69
2022/01/21 08:58:38;;;;;;;2.13;0.90;;;3.60;99.90;;;;;;5053414;28;20417;-68
2022/01/21 09:01:17;;;;;;;3.45;1.08;;;3.60;99.90;;;;;;5054009;28;20465;-69
2022/01/21 09:03:48;;;;;;;2.20;0.90;;;3.90;99.90;;;;;;5035087;28;20513;-69
2022/01/21 09:06:18;;;;;;;2.40;1.00;;;4.20;99.90;;;;;;5052968;28;20444;-69
2022/01/21 09:08:51;;;;;;;1.70;1.05;;;4.00;99.90;;;;;;5052836;28;20430;-70
2022/01/21 09:11:20;;;;;;;3.10;0.90;;;3.80;99.90;;;;;;5052593;28;21059;-70
2022/01/21 09:14:03;;;;;;;3.08;0.90;;;3.80;99.90;;;;;;5043586;28;20484;-70
2022/01/21 09:16:46;;;;;;;2.17;0.90;;;4.20;99.90;;;;;;5053869;28;20413;-69
2022/01/21 09:19:15;;;;;;;4.88;0.95;;;4.70;99.90;;;;;;5049248;28;20532;-71
2022/01/21 09:21:51;;;;;;;1.98;0.80;;;4.80;99.90;;;;;;5054019;28;20425;-69
2022/01/21 09:24:20;;;;;;;2.63;0.95;;;5.00;99.90;;;;;;5054303;28;20433;-69
2022/01/21 09:26:49;;;;;;;2.55;0.90;;;5.10;99.90;;;;;;5064853;28;20439;-69
2022/01/21 09:29:25;;;;;;;2.47;0.90;;;4.90;99.90;;;;;;5053740;28;20508;-68
2022/01/21 09:32:06;;;;;;;1.83;0.80;;;4.60;99.90;;;;;;5054062;28;20494;-71
2022/01/21 09:34:36;;;;;;;3.53;1.27;;;4.90;99.90;;;;;;5066845;28;20427;-69
2022/01/21 09:37:07;;;;;;;3.40;0.80;;;4.50;99.90;;;;;;5058276;28;20428;-70
2022/01/21 09:39:34;;;;;;;5.13;0.90;;;4.30;99.90;;;;;;5053268;28;20437;-70
2022/01/21 09:42:03;;;;;;;2.50;0.85;;;4.90;99.90;;;;;;5066341;28;20485;-71
2022/01/21 09:44:50;;;;;;;3.40;1.00;;;5.00;99.90;;;;;;5064528;28;20864;-69
2022/01/21 09:47:25;;;;;;;5.28;1.20;;;4.40;99.90;;;;;;5029177;28;20441;-70
2022/01/21 09:49:55;;;;;;;2.10;0.90;;;3.80;99.90;;;;;;5053484;28;20441;-70
2022/01/21 09:52:28;;;;;;;2.75;1.10;;;3.50;99.90;;;;;;5053851;28;20417;-71
2022/01/21 09:55:07;;;;;;;3.00;0.90;;;3.60;99.90;;;;;;5055838;28;20772;-70
2022/01/21 09:58:08;;;;;;;2.22;1.00;;;3.90;99.90;;;;;;5058521;28;20437;-71
2022/01/21 10:00:37;;;;;;;3.40;0.90;;;3.70;99.90;;;;;;5070791;28;20954;-70
2022/01/21 10:03:05;;;;;;;2.80;1.00;;;4.20;99.90;;;;;;5068127;28;20433;-70
2022/01/21 10:05:36;;;;;;;2.67;0.90;;;4.00;99.90;;;;;;5051911;28;20428;-70
2022/01/21 10:08:04;;;;;;;2.25;0.70;;;4.30;99.90;;;;;;5046623;28;20520;-68
2022/01/21 10:10:32;;;;;;;4.35;0.77;;;4.70;99.90;;;;;;5058932;28;20797;-69
2022/01/21 10:13:03;;;;;;;2.88;0.80;;;5.10;99.90;;;;;;5060780;28;20439;-69
2022/01/21 10:15:32;;;;;;;3.40;0.95;;;4.70;99.90;;;;;;5064407;28;20500;-70
2022/01/21 10:18:08;;;;;;;3.90;0.80;;;4.60;99.90;;;;;;5056622;28;20533;-70
2022/01/21 10:20:40;;;;;;;3.35;0.80;;;4.40;99.90;;;;;;5037476;28;20426;-69
2022/01/21 10:23:12;;;;;;;1.63;0.70;;;4.80;99.90;;;;;;5047842;28;20489;-69
2022/01/21 10:25:43;;;;;;;1.70;0.77;;;4.90;99.90;;;;;;5058748;28;20919;-69
2022/01/21 10:28:17;;;;;;;2.38;0.70;;;5.00;99.90;;;;;;5075953;28;20450;-70
2022/01/21 10:30:45;;;;;;;2.00;1.00;;;4.90;99.90;;;;;;5088772;28;20451;-68
2022/01/21 10:33:22;;;;;;;3.70;0.90;;;5.10;99.90;;;;;;5067855;28;20444;-69
2022/01/21 10:35:53;;;;;;;3.05;0.90;;;5.20;99.90;;;;;;5068407;28;20858;-69
2022/01/21 10:38:29;;;;;;;2.08;0.80;;;4.70;99.90;;;;;;5075570;28;20704;-74
2022/01/21 10:41:09;;;;;;;3.38;0.82;;;4.90;99.90;;;;;;5083291;28;20436;-70
2022/01/21 10:43:39;;;;;;;2.50;0.80;;;5.30;99.90;;;;;;5089737;28;20430;-70
2022/01/21 10:46:07;;;;;;;1.80;0.80;;;5.50;99.90;;;;;;5084303;28;20477;-69
2022/01/21 10:49:05;;;;;;;1.70;0.75;;;5.30;99.90;;;;;;5079131;28;20430;-68
2022/01/21 10:51:38;;;;;;;2.38;0.75;;;5.20;99.90;;;;;;5077329;28;20442;-68
2022/01/21 10:54:19;;;;;;;2.35;0.80;;;5.10;99.90;;;;;;5077494;28;20462;-69
2022/01/21 10:57:08;;;;;;;3.50;0.70;;;4.90;99.90;;;;;;5081794;28;20468;-69
2022/01/21 10:59:57;;;;;;;3.20;0.95;;;5.00;99.90;;;;;;5086937;28;20437;-68
2022/01/21 11:02:33;;;;;;;2.08;0.70;;;5.30;99.90;;;;;;5089188;28;20432;-69
2022/01/21 11:05:04;;;;;;;1.70;0.70;;;4.90;99.90;;;;;;5059733;28;20443;-69
2022/01/21 11:07:55;;;;;;;4.40;0.80;;;4.70;99.90;;;;;;5056049;28;20503;-70
2022/01/21 11:10:53;;;;;;;3.72;0.70;;;4.50;99.90;;;;;;5065170;28;20434;-70
2022/01/21 11:13:39;;;;;;;2.05;0.85;;;4.60;99.90;;;;;;5065162;28;20762;-70
2022/01/21 11:16:15;;;;;;;2.53;0.80;;;4.90;99.90;;;;;;5068539;28;20435;-69
2022/01/21 11:19:07;;;;;;;2.03;0.70;;;5.10;99.90;;;;;;5066854;28;20439;-70
2022/01/21 11:21:56;;;;;;;1.63;0.70;;;5.00;99.90;;;;;;5070154;28;20441;-71
2022/01/21 11:24:26;;;;;;;2.40;0.88;;;5.20;99.90;;;;;;5069243;28;20446;-71
2022/01/21 11:27:10;;;;;;;1.60;0.70;;;4.70;99.90;;;;;;5060277;28;20530;-69
2022/01/21 11:29:37;;;;;;;1.98;0.50;;;4.80;99.90;;;;;;5079643;28;20485;-69
2022/01/21 11:32:07;;;;;;;3.08;0.70;;;5.00;99.90;;;;;;5076582;28;20727;-70
2022/01/21 11:34:36;;;;;;;3.08;0.70;;;4.70;99.90;;;;;;5080065;28;20843;-69
2022/01/21 11:37:05;;;;;;;1.33;0.80;;;4.70;99.90;;;;;;5094843;28;20768;-72
2022/01/21 11:39:35;;;;;;;2.70;1.20;;;4.60;99.90;;;;;;5084772;28;21042;-71
2022/01/21 11:42:05;;;;;;;2.00;0.88;;;4.70;99.90;;;;;;5089985;28;20429;-69
2022/01/21 11:44:41;;;;;;;1.60;0.60;;;4.70;99.90;;;;;;5076276;28;20463;-70
2022/01/21 11:47:28;;;;;;;1.40;0.60;;;4.60;99.90;;;;;;5073396;28;20515;-70
2022/01/21 11:49:59;;;;;;;2.30;0.70;;;5.10;99.90;;;;;;5073563;28;20436;-70
2022/01/21 11:52:27;;;;;;;3.10;0.60;;;5.10;99.90;;;;;;5075602;28;20439;-71
2022/01/21 11:54:54;;;;;;;2.60;0.70;;;5.20;99.90;;;;;;5074316;28;20431;-71
2022/01/21 11:57:30;;;;;;;2.08;0.50;;;5.20;99.90;;;;;;5089246;28;20926;-70
2022/01/21 12:00:05;;;;;;;2.72;0.60;;;5.40;99.90;;;;;;5078494;28;20490;-71
2022/01/21 12:02:35;;;;;;;1.27;0.60;;;5.20;99.90;;;;;;5073895;28;20511;-70
2022/01/21 12:05:06;;;;;;;1.90;0.60;;;4.90;99.90;;;;;;5075815;28;20460;-70
2022/01/21 12:08:04;;;;;;;1.45;0.50;;;4.90;99.90;;;;;;5076270;28;20434;-70
2022/01/21 12:10:39;;;;;;;2.90;0.55;;;5.50;99.90;;;;;;5059715;28;20854;-70
2022/01/21 12:13:13;;;;;;;3.20;0.60;;;5.70;99.90;;;;;;5081186;28;20811;-71
2022/01/21 12:21:43;;;;;;;1.25;0.70;;;6.10;99.90;;;;;;5077728;28;20441;-70
2022/01/21 12:24:10;;;;;;;1.40;0.50;;;5.80;99.90;;;;;;5079616;28;21044;-70
2022/01/21 12:26:53;;;;;;;0.93;0.50;;;5.60;99.90;;;;;;5078885;28;20462;-69
2022/01/21 12:29:24;;;;;;;1.80;0.50;;;5.60;99.90;;;;;;5067534;28;20424;-68
2022/01/21 12:31:57;;;;;;;2.08;0.50;;;5.70;99.90;;;;;;5073645;28;20419;-70
2022/01/21 12:34:27;;;;;;;1.00;0.50;;;5.80;99.90;;;;;;5070135;28;21136;-70
2022/01/21 12:37:00;;;;;;;1.73;0.52;;;5.50;99.90;;;;;;5073170;28;20415;-70
2022/01/21 12:39:39;;;;;;;1.70;0.50;;;5.60;99.90;;;;;;5071439;28;20423;-70
2022/01/21 12:42:27;;;;;;;2.00;0.50;;;5.40;99.90;;;;;;5068868;28;20427;-71
2022/01/21 12:44:56;;;;;;;1.45;0.40;;;6.00;99.90;;;;;;5074617;28;20462;-70
2022/01/21 12:47:35;;;;;;;1.92;0.50;;;6.40;99.90;;;;;;5064440;28;20433;-70
2022/01/21 12:50:17;;;;;;;2.03;0.40;;;6.30;99.90;;;;;;5071260;28;20470;-70
2022/01/21 12:52:48;;;;;;;1.15;0.40;;;6.30;99.90;;;;;;5070841;28;20917;-70
2022/01/21 12:58:12;;;;;;;2.50;0.50;;;5.80;99.90;;;;;;5072510;28;20454;-70
2022/01/21 13:00:40;;;;;;;1.80;0.47;;;5.60;99.90;;;;;;5073534;28;20424;-70
2022/01/21 13:03:22;;;;;;;1.30;0.40;;;5.00;99.90;;;;;;5071932;28;21057;-70
2022/01/21 13:06:06;;;;;;;1.80;0.60;;;4.60;99.90;;;;;;5072317;28;20434;-70
2022/01/21 13:08:43;;;;;;;4.00;0.50;;;4.60;99.90;;;;;;5072489;28;20925;-70
2022/01/21 13:11:20;;;;;;;1.40;0.40;;;4.60;99.90;;;;;;5072536;28;20432;-71
2022/01/21 13:13:52;;;;;;;1.53;0.50;;;5.00;99.90;;;;;;5072840;28;20422;-71
2022/01/21 13:16:27;;;;;;;0.80;0.40;;;5.50;99.90;;;;;;5073990;28;20435;-72
2022/01/21 13:19:06;;;;;;;2.67;0.60;;;5.70;99.90;;;;;;5075268;28;20420;-71
2022/01/21 13:21:36;;;;;;;2.90;0.50;;;5.60;99.90;;;;;;5075031;28;20521;-72
2022/01/21 13:24:21;;;;;;;2.10;0.50;;;5.70;99.90;;;;;;5073472;28;20443;-71
2022/01/21 13:26:51;;;;;;;1.77;0.43;;;5.50;99.90;;;;;;5073721;28;20420;-70
2022/01/21 13:29:19;;;;;;;1.60;0.40;;;5.20;99.90;;;;;;5073940;28;20423;-71
2022/01/21 13:32:06;;;;;;;1.70;0.50;;;5.10;99.90;;;;;;5073583;28;20506;-71
2022/01/21 13:34:36;;;;;;;1.20;0.47;;;4.80;99.90;;;;;;5072761;28;20469;-71
2022/01/21 13:37:08;;;;;;;3.58;0.60;;;4.70;99.90;;;;;;5072865;28;20424;-71
2022/01/21 13:39:37;;;;;;;0.93;0.37;;;4.70;99.90;;;;;;5073034;28;20415;-71
2022/01/21 13:42:07;;;;;;;1.80;0.50;;;4.70;99.90;;;;;;5072559;28;20435;-71
2022/01/21 13:44:42;;;;;;;1.65;0.40;;;4.70;99.90;;;;;;5072771;28;20431;-71
2022/01/21 13:47:26;;;;;;;0.70;0.40;;;4.70;99.90;;;;;;5076973;28;20839;-70
2022/01/21 13:49:56;;;;;;;2.97;0.50;;;4.70;99.90;;;;;;5077220;28;20481;-70
2022/01/21 13:52:37;;;;;;;2.17;0.63;;;4.70;99.90;;;;;;5077298;28;20423;-70
2022/01/21 13:55:04;;;;;;;1.58;0.40;;;4.40;99.90;;;;;;5076612;28;20442;-70
2022/01/21 13:57:32;;;;;;;1.20;0.40;;;4.50;99.90;;;;;;5076047;28;20423;-70
2022/01/21 14:00:03;;;;;;;1.52;0.40;;;4.60;99.90;;;;;;5075673;28;20477;-71
2022/01/21 14:02:31;;;;;;;1.40;0.40;;;4.60;99.90;;;;;;5075287;28;20423;-70
2022/01/21 14:05:01;;;;;;;1.77;0.40;;;4.70;99.90;;;;;;5074633;28;20846;-71
2022/01/21 14:07:33;;;;;;;1.40;0.40;;;4.70;99.90;;;;;;5074035;28;20431;-69
2022/01/21 14:10:07;;;;;;;1.00;0.40;;;4.70;99.90;;;;;;5073319;28;20438;-70
2022/01/21 14:12:34;;;;;;;1.40;0.40;;;4.70;99.90;;;;;;5074860;28;20502;-70
2022/01/21 14:15:02;;;;;;;0.90;0.40;;;4.60;99.90;;;;;;5074775;28;20439;-71
2022/01/21 14:17:29;;;;;;;1.00;0.40;;;4.60;99.90;;;;;;5075833;28;20427;-71